Time;durP1;ratioP1;P1;durP2;ratioP2;P2;SDS_P1;SDS_P2;PMS_P1;PMS_P2;Temp;Humidity;BMP_temperature;BMP_pressure;BME280_temperature;BME280_humidity;BME280_pressure;Samples;Min_cycle;Max_cycle;Signal;HPM_P1;HPM_P2
2024/01/22 00:02:02;;;;;;;6.63;4.78;;;7.20;99.90;;;;;;5102621;28;20043;-35
2024/01/22 00:04:28;;;;;;;7.82;5.13;;;7.30;99.90;;;;;;5092826;28;20036;-35
2024/01/22 00:06:53;;;;;;;9.63;5.55;;;7.30;99.90;;;;;;5086101;28;20080;-35
2024/01/22 00:09:19;;;;;;;8.85;5.03;;;7.30;99.90;;;;;;5088564;28;20563;-35
2024/01/22 00:11:45;;;;;;;7.85;5.05;;;7.30;99.90;;;;;;5075701;28;20400;-35
2024/01/22 00:14:11;;;;;;;11.02;5.47;;;7.40;99.90;;;;;;5094409;28;20036;-35
2024/01/22 00:16:40;;;;;;;6.50;5.00;;;7.40;99.90;;;;;;5089758;28;20174;-35
2024/01/22 00:19:09;;;;;;;8.52;4.90;;;7.40;99.90;;;;;;5091221;28;20051;-35
2024/01/22 00:21:39;;;;;;;8.10;4.57;;;7.50;99.90;;;;;;5086186;28;20494;-35
2024/01/22 00:24:05;;;;;;;6.82;5.15;;;7.50;99.90;;;;;;5084449;28;20372;-35
2024/01/22 00:26:31;;;;;;;6.55;4.38;;;7.50;99.90;;;;;;5094572;28;20047;-35
2024/01/22 00:28:57;;;;;;;7.95;4.15;;;7.60;99.90;;;;;;5088857;28;20193;-35
2024/01/22 00:31:23;;;;;;;4.75;4.10;;;7.60;99.90;;;;;;5093950;28;20048;-35
2024/01/22 00:33:48;;;;;;;5.95;4.80;;;7.60;99.90;;;;;;5094153;28;20101;-35
2024/01/22 00:36:14;;;;;;;6.05;4.78;;;7.60;99.90;;;;;;5103016;28;20116;-34
2024/01/22 00:38:41;;;;;;;8.00;5.00;;;7.50;99.90;;;;;;5098008;28;20028;-35
2024/01/22 00:41:08;;;;;;;5.30;4.22;;;7.50;99.90;;;;;;5104352;28;20497;-35
2024/01/22 00:43:34;;;;;;;5.82;4.20;;;7.50;99.90;;;;;;5064922;28;20097;-35
2024/01/22 00:46:02;;;;;;;6.20;4.40;;;7.60;99.90;;;;;;5082126;28;20079;-35
2024/01/22 00:48:29;;;;;;;8.98;4.53;;;7.60;99.90;;;;;;5094728;28;20441;-35
2024/01/22 00:50:54;;;;;;;7.43;4.43;;;7.60;99.90;;;;;;5093848;28;20048;-35
2024/01/22 00:53:20;;;;;;;6.28;4.63;;;7.70;99.90;;;;;;5095716;28;20094;-35
2024/01/22 00:55:46;;;;;;;7.07;4.50;;;7.70;99.90;;;;;;5091306;28;20514;-35
2024/01/22 00:58:12;;;;;;;8.43;4.75;;;7.80;99.90;;;;;;5086693;28;20044;-35
2024/01/22 01:00:38;;;;;;;6.63;4.03;;;7.80;99.90;;;;;;5076143;28;20085;-35
2024/01/22 01:03:04;;;;;;;8.43;4.88;;;7.80;99.90;;;;;;5055283;28;20621;-35
2024/01/22 01:05:31;;;;;;;6.47;4.00;;;7.90;99.90;;;;;;5093188;28;20036;-35
2024/01/22 01:07:56;;;;;;;6.00;4.03;;;7.90;99.90;;;;;;5093624;28;20031;-35
2024/01/22 01:10:22;;;;;;;8.15;3.80;;;7.90;99.90;;;;;;5086273;28;20093;-35
2024/01/22 01:12:48;;;;;;;6.95;4.10;;;8.00;99.90;;;;;;5103851;28;20048;-35
2024/01/22 01:15:14;;;;;;;6.20;4.93;;;8.00;99.90;;;;;;5093719;28;20047;-35
2024/01/22 01:17:40;;;;;;;6.47;4.93;;;8.10;99.90;;;;;;5093361;28;20047;-35
2024/01/22 01:20:06;;;;;;;4.13;3.60;;;8.10;99.90;;;;;;5093272;28;20036;-35
2024/01/22 01:22:32;;;;;;;7.18;4.28;;;8.20;99.90;;;;;;5086955;28;20036;-35
2024/01/22 01:24:58;;;;;;;5.18;3.95;;;8.20;99.90;;;;;;5101416;28;20036;-35
2024/01/22 01:27:24;;;;;;;5.60;4.07;;;8.20;99.90;;;;;;5093099;28;20165;-35
2024/01/22 01:29:50;;;;;;;5.50;4.13;;;8.30;99.90;;;;;;5078564;28;20116;-35
2024/01/22 01:32:15;;;;;;;6.53;4.18;;;8.30;99.90;;;;;;5087989;28;20040;-35
2024/01/22 01:34:41;;;;;;;5.28;4.38;;;8.40;99.90;;;;;;5091986;28;20082;-34
2024/01/22 01:37:07;;;;;;;4.68;3.92;;;8.40;99.90;;;;;;5108253;28;20101;-34
2024/01/22 01:39:32;;;;;;;6.07;3.70;;;8.50;99.90;;;;;;5109022;28;20040;-32
2024/01/22 01:41:58;;;;;;;6.95;4.18;;;8.50;99.90;;;;;;5076346;28;20396;-32
2024/01/22 01:44:44;;;;;;;6.00;4.38;;;8.50;99.90;;;;;;5060412;28;20480;-33
2024/01/22 01:47:10;;;;;;;4.60;3.70;;;8.60;99.90;;;;;;5066264;28;20094;-33
2024/01/22 01:49:35;;;;;;;6.57;4.10;;;8.60;99.90;;;;;;5049650;28;20407;-33
2024/01/22 01:52:01;;;;;;;5.10;4.25;;;8.60;99.90;;;;;;5056591;28;20041;-32
2024/01/22 01:54:29;;;;;;;6.00;4.13;;;8.50;99.90;;;;;;5045795;28;20048;-32
2024/01/22 01:56:55;;;;;;;10.65;4.43;;;8.50;99.90;;;;;;5047920;28;20079;-32
2024/01/22 01:59:21;;;;;;;5.88;4.30;;;8.50;99.90;;;;;;5066269;28;20056;-32
2024/01/22 02:01:46;;;;;;;7.00;4.53;;;8.30;99.90;;;;;;5063881;28;20476;-32
2024/01/22 02:04:12;;;;;;;6.25;3.67;;;8.40;99.90;;;;;;5076087;28;20040;-32
2024/01/22 02:06:40;;;;;;;5.72;4.80;;;8.40;99.90;;;;;;5083492;28;20089;-32
2024/01/22 02:09:07;;;;;;;5.40;4.88;;;8.30;99.90;;;;;;5075976;28;20036;-32
2024/01/22 02:11:32;;;;;;;8.00;4.32;;;8.30;99.90;;;;;;5079048;28;20429;-32
2024/01/22 02:13:58;;;;;;;7.82;5.00;;;8.30;99.90;;;;;;5072852;28;20407;-32
2024/01/22 02:16:24;;;;;;;6.32;5.38;;;8.20;99.90;;;;;;5070871;28;20043;-32
2024/01/22 02:18:49;;;;;;;6.82;4.35;;;8.20;99.90;;;;;;5061622;28;20044;-32
2024/01/22 02:21:15;;;;;;;8.18;5.35;;;8.30;99.90;;;;;;5081363;28;20047;-31
2024/01/22 02:23:41;;;;;;;7.18;4.50;;;8.30;99.90;;;;;;5070274;28;20044;-31
2024/01/22 02:26:07;;;;;;;8.05;5.18;;;8.20;99.90;;;;;;5078302;28;20461;-31
2024/01/22 02:28:32;;;;;;;4.63;3.90;;;8.20;99.90;;;;;;5092070;28;20032;-32
2024/01/22 02:30:59;;;;;;;5.95;5.28;;;8.20;99.90;;;;;;5051899;28;20047;-31
2024/01/22 02:33:25;;;;;;;10.00;5.30;;;8.20;99.90;;;;;;5081578;28;20044;-31
2024/01/22 02:35:50;;;;;;;5.65;4.53;;;8.20;99.90;;;;;;5064799;28;20044;-31
2024/01/22 02:38:16;;;;;;;4.78;4.38;;;8.20;99.90;;;;;;5063619;28;20054;-31
2024/01/22 02:40:42;;;;;;;7.32;4.45;;;8.20;99.90;;;;;;5073207;28;20380;-31
2024/01/22 02:43:08;;;;;;;6.72;4.75;;;8.20;99.90;;;;;;5052284;28;20045;-30
2024/01/22 02:45:34;;;;;;;6.30;4.80;;;8.20;99.90;;;;;;5071522;28;20048;-30
2024/01/22 02:47:59;;;;;;;5.95;4.70;;;8.20;99.90;;;;;;5049770;28;20045;-31
2024/01/22 02:50:25;;;;;;;10.38;6.00;;;8.20;99.90;;;;;;5071313;28;20048;-31
2024/01/22 02:52:51;;;;;;;6.90;5.25;;;8.20;99.90;;;;;;5071648;28;20068;-30
2024/01/22 02:55:17;;;;;;;7.20;4.75;;;8.20;99.90;;;;;;5071347;28;20032;-31
2024/01/22 02:57:42;;;;;;;7.70;5.20;;;8.20;99.90;;;;;;5057310;28;20449;-31
2024/01/22 03:00:08;;;;;;;6.28;4.45;;;8.20;99.90;;;;;;5073753;28;20048;-31
2024/01/22 03:02:35;;;;;;;7.95;4.95;;;8.30;99.90;;;;;;5071069;28;20044;-31
2024/01/22 03:05:01;;;;;;;6.28;4.88;;;8.30;99.90;;;;;;5036359;28;20044;-31
2024/01/22 03:07:26;;;;;;;5.90;4.55;;;8.40;99.90;;;;;;5069573;28;20029;-31
2024/01/22 03:09:52;;;;;;;7.22;4.50;;;8.40;99.90;;;;;;5071518;28;20041;-31
2024/01/22 03:12:18;;;;;;;9.23;5.18;;;8.50;99.90;;;;;;5071181;28;20131;-30
2024/01/22 03:14:44;;;;;;;4.68;4.18;;;8.40;99.90;;;;;;5071255;28;20036;-31
2024/01/22 03:17:09;;;;;;;8.27;4.88;;;8.40;99.90;;;;;;5069505;28;20037;-31
2024/01/22 03:19:36;;;;;;;7.25;4.68;;;8.50;99.90;;;;;;5071175;28;20556;-31
2024/01/22 03:22:02;;;;;;;5.22;4.65;;;8.40;99.90;;;;;;5071504;28;20041;-31
2024/01/22 03:24:28;;;;;;;7.03;4.80;;;8.40;99.90;;;;;;5069817;28;20039;-31
2024/01/22 03:26:54;;;;;;;7.43;4.28;;;8.40;99.90;;;;;;5071227;28;20052;-31
2024/01/22 03:29:19;;;;;;;5.72;4.82;;;8.50;99.90;;;;;;5057134;28;20036;-31
2024/01/22 03:31:45;;;;;;;4.93;4.40;;;8.50;99.90;;;;;;5073147;28;20029;-30
2024/01/22 03:34:11;;;;;;;9.30;4.43;;;8.50;99.90;;;;;;5073093;28;20033;-31
2024/01/22 03:36:37;;;;;;;5.78;4.22;;;8.50;99.90;;;;;;5056326;28;20507;-31
2024/01/22 03:39:03;;;;;;;6.55;4.57;;;8.50;99.90;;;;;;5055753;28;20052;-32
2024/01/22 03:41:29;;;;;;;5.60;4.18;;;8.50;99.90;;;;;;5084880;28;20048;-32
2024/01/22 03:43:55;;;;;;;5.65;4.15;;;8.60;99.90;;;;;;5068594;28;20625;-31
2024/01/22 03:46:21;;;;;;;6.30;3.95;;;8.50;99.90;;;;;;5081911;28;20040;-31
2024/01/22 03:48:46;;;;;;;7.03;4.85;;;8.60;99.90;;;;;;5085964;28;20367;-32
2024/01/22 03:51:12;;;;;;;4.82;3.58;;;8.60;99.90;;;;;;5089568;28;20048;-32
2024/01/22 03:53:38;;;;;;;4.65;3.78;;;8.60;99.90;;;;;;5071402;28;20534;-31
2024/01/22 03:56:05;;;;;;;4.90;4.40;;;8.60;99.90;;;;;;5091299;28;20392;-32
2024/01/22 03:58:32;;;;;;;4.60;4.13;;;8.60;99.90;;;;;;5080054;28;20089;-32
2024/01/22 04:00:59;;;;;;;6.10;4.53;;;8.60;99.90;;;;;;5093125;28;20044;-32
2024/01/22 04:03:24;;;;;;;4.80;4.30;;;8.70;99.90;;;;;;5089765;28;20464;-32
2024/01/22 04:05:50;;;;;;;12.52;7.47;;;8.70;99.90;;;;;;5064066;28;20087;-32
2024/01/22 04:08:16;;;;;;;7.00;4.07;;;8.70;99.90;;;;;;5091919;28;20058;-32
2024/01/22 04:10:42;;;;;;;4.63;4.13;;;8.70;99.90;;;;;;5085470;28;20480;-32
2024/01/22 04:13:08;;;;;;;4.68;3.70;;;8.80;99.90;;;;;;5077046;28;20082;-32
2024/01/22 04:15:34;;;;;;;4.88;4.03;;;8.80;99.90;;;;;;5068266;28;20080;-31
2024/01/22 04:18:00;;;;;;;5.20;4.70;;;8.80;99.90;;;;;;5060713;28;20047;-32
2024/01/22 04:20:26;;;;;;;5.00;4.50;;;8.80;99.90;;;;;;5091510;28;20123;-31
2024/01/22 04:22:52;;;;;;;6.50;4.32;;;8.80;99.90;;;;;;5079885;28;20128;-32
2024/01/22 04:25:18;;;;;;;4.65;3.70;;;8.80;99.90;;;;;;5092494;28;20039;-32
2024/01/22 04:27:44;;;;;;;4.05;3.20;;;8.90;99.90;;;;;;5086200;28;20033;-32
2024/01/22 04:30:11;;;;;;;6.00;3.33;;;8.90;99.90;;;;;;5088964;28;20419;-32
2024/01/22 04:32:36;;;;;;;6.25;3.83;;;8.90;99.90;;;;;;5082465;28;20112;-31
2024/01/22 04:35:04;;;;;;;4.65;4.18;;;8.90;99.90;;;;;;5083244;28;20123;-32
2024/01/22 04:37:30;;;;;;;5.15;4.68;;;8.90;99.90;;;;;;5087460;28;20417;-32
2024/01/22 04:40:07;;;;;;;4.43;3.42;;;8.90;99.90;;;;;;5085048;28;20625;-32
2024/01/22 04:42:33;;;;;;;4.63;4.22;;;8.90;99.90;;;;;;5083867;28;20052;-32
2024/01/22 04:44:59;;;;;;;5.53;4.03;;;8.90;99.90;;;;;;5084819;28;20043;-32
2024/01/22 04:47:25;;;;;;;5.15;4.05;;;9.00;99.90;;;;;;5087852;28;20174;-31
2024/01/22 04:49:51;;;;;;;4.43;4.03;;;9.00;99.90;;;;;;5069449;28;20123;-30
2024/01/22 04:52:16;;;;;;;5.57;4.95;;;9.00;99.90;;;;;;5087844;28;20047;-31
2024/01/22 04:54:42;;;;;;;4.18;3.08;;;9.00;99.90;;;;;;5086876;28;20119;-31
2024/01/22 04:57:08;;;;;;;4.15;3.58;;;9.00;99.90;;;;;;5088423;28;20073;-31
2024/01/22 04:59:33;;;;;;;4.07;3.67;;;9.10;99.90;;;;;;5086271;28;20424;-31
2024/01/22 05:01:59;;;;;;;4.05;3.65;;;9.10;99.90;;;;;;5070465;28;20063;-31
2024/01/22 05:04:25;;;;;;;2.88;2.65;;;9.10;99.90;;;;;;5088996;28;20067;-31
2024/01/22 05:06:50;;;;;;;4.07;3.13;;;9.20;99.90;;;;;;5087504;28;20059;-30
2024/01/22 05:09:16;;;;;;;3.95;3.58;;;9.20;99.90;;;;;;5086348;28;20069;-30
2024/01/22 05:11:42;;;;;;;3.67;3.38;;;9.30;99.90;;;;;;5089056;28;20036;-31
2024/01/22 05:14:08;;;;;;;4.00;3.67;;;9.30;99.90;;;;;;5086196;28;20040;-31
2024/01/22 05:16:33;;;;;;;3.42;3.13;;;9.30;99.90;;;;;;5091194;28;20035;-31
2024/01/22 05:18:59;;;;;;;3.33;3.03;;;9.40;99.90;;;;;;5083497;28;20048;-34
2024/01/22 05:21:25;;;;;;;3.75;3.45;;;9.40;99.90;;;;;;5073414;28;20040;-32
2024/01/22 05:23:51;;;;;;;3.67;3.05;;;9.40;99.90;;;;;;5089537;28;20043;-33
2024/01/22 05:26:16;;;;;;;4.03;3.33;;;9.50;99.90;;;;;;5086560;28;20064;-35
2024/01/22 05:28:42;;;;;;;3.50;3.20;;;9.50;99.90;;;;;;5090252;28;20047;-35
2024/01/22 05:31:08;;;;;;;4.72;3.00;;;9.50;99.90;;;;;;5088616;28;20039;-34
2024/01/22 05:33:34;;;;;;;3.33;3.03;;;9.50;99.90;;;;;;5086168;28;20076;-31
2024/01/22 05:35:59;;;;;;;3.60;2.90;;;9.50;99.90;;;;;;5079229;28;20040;-31
2024/01/22 05:38:25;;;;;;;3.20;2.90;;;9.60;99.90;;;;;;5082217;28;20054;-31
2024/01/22 05:40:51;;;;;;;3.83;3.35;;;9.60;99.90;;;;;;5094953;28;20051;-31
2024/01/22 05:43:17;;;;;;;3.72;2.97;;;9.60;99.90;;;;;;5070902;28;20033;-32
2024/01/22 05:45:43;;;;;;;4.63;3.35;;;9.70;99.90;;;;;;5072847;28;20585;-32
2024/01/22 05:48:09;;;;;;;3.75;3.45;;;9.70;99.90;;;;;;5047301;28;20418;-33
2024/01/22 05:50:35;;;;;;;4.43;3.33;;;9.70;99.90;;;;;;5090430;28;20127;-33
2024/01/22 05:53:01;;;;;;;3.45;3.00;;;9.70;99.90;;;;;;5107144;28;20035;-33
2024/01/22 05:55:28;;;;;;;3.63;2.80;;;9.80;99.90;;;;;;5089813;28;20067;-33
2024/01/22 05:57:54;;;;;;;4.22;3.05;;;9.80;99.90;;;;;;5098589;28;20395;-33
2024/01/22 06:00:20;;;;;;;3.70;3.40;;;9.80;99.90;;;;;;5095714;28;20475;-33
2024/01/22 06:02:46;;;;;;;3.45;3.10;;;9.80;99.90;;;;;;5100194;28;20028;-33
2024/01/22 06:05:12;;;;;;;4.55;3.20;;;9.90;99.90;;;;;;5072563;28;20094;-33
2024/01/22 06:07:38;;;;;;;3.45;2.58;;;9.90;99.90;;;;;;5089440;28;20047;-31
2024/01/22 06:10:08;;;;;;;3.20;2.90;;;9.90;99.90;;;;;;5088357;28;20044;-31
2024/01/22 06:12:36;;;;;;;3.65;2.97;;;9.90;99.90;;;;;;5092703;28;20032;-31
2024/01/22 06:15:03;;;;;;;3.95;3.00;;;9.90;99.90;;;;;;5062496;28;20051;-32
2024/01/22 06:17:31;;;;;;;3.65;3.35;;;9.90;99.90;;;;;;5087490;28;20043;-32
2024/01/22 06:20:01;;;;;;;3.22;3.03;;;9.90;99.90;;;;;;5076354;28;20044;-31
2024/01/22 06:22:27;;;;;;;4.55;3.58;;;10.00;99.90;;;;;;5104030;28;20500;-32
2024/01/22 06:24:53;;;;;;;3.60;3.20;;;10.00;99.90;;;;;;5095557;28;20040;-32
2024/01/22 06:27:19;;;;;;;3.95;3.10;;;10.00;99.90;;;;;;5093385;28;20108;-32
2024/01/22 06:29:44;;;;;;;3.28;2.92;;;10.00;99.90;;;;;;5088834;28;20039;-32
2024/01/22 06:32:10;;;;;;;3.42;3.00;;;10.00;99.90;;;;;;5095154;28;20111;-31
2024/01/22 06:34:36;;;;;;;2.83;2.63;;;10.00;99.90;;;;;;5074411;28;20036;-32
2024/01/22 06:37:04;;;;;;;3.40;3.10;;;10.10;99.90;;;;;;5090957;28;20084;-31
2024/01/22 06:39:30;;;;;;;2.97;2.53;;;10.10;99.90;;;;;;5072720;28;20050;-32
2024/01/22 06:41:56;;;;;;;3.00;2.80;;;10.20;99.90;;;;;;5095156;28;20387;-33
2024/01/22 06:44:22;;;;;;;3.47;2.50;;;10.20;99.90;;;;;;5088341;28;20040;-35
2024/01/22 06:46:48;;;;;;;3.40;3.10;;;10.20;99.90;;;;;;5075002;28;20097;-34
2024/01/22 06:49:13;;;;;;;7.55;3.00;;;10.20;99.90;;;;;;5093297;28;20442;-32
2024/01/22 06:51:39;;;;;;;4.25;2.83;;;10.10;99.90;;;;;;5091193;28;20218;-32
2024/01/22 06:54:05;;;;;;;4.03;2.78;;;10.10;99.90;;;;;;5095698;28;20475;-32
2024/01/22 06:56:31;;;;;;;4.28;2.60;;;10.20;99.90;;;;;;5099559;28;20090;-32
2024/01/22 06:58:59;;;;;;;5.63;2.97;;;10.20;99.90;;;;;;5087741;28;20110;-32
2024/01/22 07:01:27;;;;;;;7.00;3.40;;;10.20;99.90;;;;;;5098971;28;20127;-32
2024/01/22 07:03:54;;;;;;;6.35;2.97;;;10.20;99.90;;;;;;5089725;28;20107;-33
2024/01/22 07:06:19;;;;;;;8.60;2.78;;;10.20;99.90;;;;;;5077410;28;20051;-32
2024/01/22 07:08:46;;;;;;;8.07;2.78;;;10.20;99.90;;;;;;5078067;28;20051;-32
2024/01/22 07:11:12;;;;;;;8.68;3.25;;;10.20;99.90;;;;;;5096443;28;20040;-32
2024/01/22 07:13:38;;;;;;;11.63;2.80;;;10.30;99.90;;;;;;5064883;28;20036;-31
2024/01/22 07:16:06;;;;;;;5.63;2.28;;;10.40;99.90;;;;;;5063010;28;20051;-32
2024/01/22 07:18:33;;;;;;;8.45;2.53;;;10.40;99.90;;;;;;5078194;28;20395;-32
2024/01/22 07:20:59;;;;;;;8.00;2.78;;;10.50;99.90;;;;;;5077071;28;20036;-32
2024/01/22 07:23:25;;;;;;;7.18;2.67;;;10.60;99.90;;;;;;5094799;28;20134;-33
2024/01/22 07:25:50;;;;;;;11.95;2.60;;;10.70;99.90;;;;;;5077243;28;20123;-35
2024/01/22 07:28:16;;;;;;;7.07;2.53;;;10.60;99.90;;;;;;5078374;28;20486;-36
2024/01/22 07:30:42;;;;;;;10.63;3.53;;;10.60;99.90;;;;;;5094973;28;20040;-37
2024/01/22 07:33:08;;;;;;;10.57;3.17;;;10.60;99.90;;;;;;5096024;28;20050;-32
2024/01/22 07:35:34;;;;;;;10.27;3.58;;;10.70;99.90;;;;;;5103322;28;20387;-35
2024/01/22 07:38:00;;;;;;;11.32;3.15;;;10.60;99.90;;;;;;5078159;28;20113;-32
2024/01/22 07:40:26;;;;;;;12.07;3.33;;;10.70;99.90;;;;;;5094451;28;20056;-33
2024/01/22 07:42:52;;;;;;;13.43;4.15;;;10.70;99.90;;;;;;5094649;28;20066;-31
2024/01/22 07:45:18;;;;;;;14.02;3.83;;;10.80;99.90;;;;;;5087774;28;20112;-33
2024/01/22 07:47:44;;;;;;;13.23;3.83;;;10.80;99.90;;;;;;5078345;28;20040;-33
2024/01/22 07:50:10;;;;;;;11.50;3.78;;;10.80;99.90;;;;;;5093948;28;20479;-34
2024/01/22 07:52:37;;;;;;;10.02;2.95;;;10.80;99.90;;;;;;5094294;28;20229;-34
2024/01/22 07:55:05;;;;;;;15.23;3.63;;;10.80;99.90;;;;;;5103853;28;20039;-32
2024/01/22 07:57:31;;;;;;;14.02;3.80;;;10.80;99.90;;;;;;5090491;28;20042;-36
2024/01/22 07:59:57;;;;;;;11.00;3.28;;;10.80;99.90;;;;;;5103042;28;20548;-36
2024/01/22 08:02:23;;;;;;;10.20;3.28;;;10.80;99.90;;;;;;5094091;28;20040;-36
2024/01/22 08:04:50;;;;;;;11.00;3.00;;;10.80;99.90;;;;;;5091774;28;20047;-36
2024/01/22 08:07:16;;;;;;;13.85;3.45;;;10.80;99.90;;;;;;5078108;28;20040;-31
2024/01/22 08:09:42;;;;;;;10.55;3.25;;;10.80;99.90;;;;;;5083487;28;20055;-32
2024/01/22 08:12:08;;;;;;;10.90;3.22;;;10.80;99.90;;;;;;5088012;28;20040;-31
2024/01/22 08:14:34;;;;;;;12.25;3.58;;;10.70;99.90;;;;;;5078124;28;20051;-32
2024/01/22 08:17:03;;;;;;;9.75;3.42;;;10.70;99.90;;;;;;5087373;28;20119;-34
2024/01/22 08:19:30;;;;;;;14.90;4.38;;;10.60;99.90;;;;;;5100149;28;20038;-34
2024/01/22 08:21:56;;;;;;;9.10;3.97;;;10.60;99.90;;;;;;5100246;28;20111;-34
2024/01/22 08:24:23;;;;;;;11.82;5.10;;;10.60;99.90;;;;;;5098139;28;20087;-34
2024/01/22 08:26:49;;;;;;;11.40;4.55;;;10.50;99.90;;;;;;5092968;28;20098;-34
2024/01/22 08:31:54;;;;;;;12.10;6.25;;;10.50;99.90;;;;;;5187762;22;20056;-86
2024/01/22 08:34:19;;;;;;;10.82;4.47;;;10.60;99.90;;;;;;5073593;28;20040;-87
2024/01/22 08:36:45;;;;;;;10.50;4.53;;;10.50;99.90;;;;;;5075617;28;20121;-91
2024/01/22 08:39:11;;;;;;;11.45;5.90;;;10.60;99.90;;;;;;5082874;28;20040;-87
2024/01/22 08:41:37;;;;;;;10.95;4.45;;;10.50;99.90;;;;;;5059280;28;20044;-87
2024/01/22 08:44:05;;;;;;;10.07;5.07;;;10.50;99.90;;;;;;5075936;28;20048;-87
2024/01/22 08:46:34;;;;;;;13.45;6.20;;;10.50;99.90;;;;;;5057671;28;20502;-92
2024/01/22 08:49:00;;;;;;;11.00;4.68;;;10.50;99.90;;;;;;5083314;28;20127;-87
2024/01/22 08:51:26;;;;;;;10.43;3.78;;;10.50;99.90;;;;;;5071135;28;20197;-93
2024/01/22 08:53:51;;;;;;;13.02;4.53;;;10.50;99.90;;;;;;5064996;28;20048;-92
2024/01/22 08:56:17;;;;;;;13.85;5.47;;;10.40;99.90;;;;;;5076715;28;20055;-87
2024/01/22 08:58:43;;;;;;;11.52;3.70;;;10.40;99.90;;;;;;5079853;28;20075;-91
2024/01/22 09:01:08;;;;;;;11.82;3.72;;;10.40;99.90;;;;;;5077916;28;20360;-92
2024/01/22 09:03:34;;;;;;;7.80;3.42;;;10.40;99.90;;;;;;5083365;28;20469;-86
2024/01/22 09:06:00;;;;;;;10.60;4.05;;;10.40;99.90;;;;;;5058590;28;20051;-87
2024/01/22 09:08:27;;;;;;;11.73;4.15;;;10.40;99.90;;;;;;5062477;28;20052;-87
2024/01/22 09:10:53;;;;;;;14.25;3.92;;;10.40;99.90;;;;;;5074460;28;20093;-87
2024/01/22 09:13:19;;;;;;;7.75;2.78;;;10.40;99.90;;;;;;5057587;28;20035;-88
2024/01/22 09:15:45;;;;;;;10.95;3.50;;;10.40;99.90;;;;;;5073193;28;20047;-86
2024/01/22 09:18:11;;;;;;;11.20;3.72;;;10.40;99.90;;;;;;5074208;28;20032;-87
2024/01/22 09:20:37;;;;;;;10.52;2.53;;;10.40;99.90;;;;;;5059689;28;20040;-86
2024/01/22 09:23:05;;;;;;;10.77;3.17;;;10.30;99.90;;;;;;5056658;28;20035;-87
2024/01/22 09:25:33;;;;;;;11.85;3.67;;;10.30;99.90;;;;;;5073817;28;20119;-86
2024/01/22 09:28:00;;;;;;;12.95;4.95;;;10.30;99.90;;;;;;5062407;28;20247;-96
2024/01/22 09:30:25;;;;;;;13.23;4.25;;;10.30;99.90;;;;;;5067155;28;20050;-94
2024/01/22 09:32:54;;;;;;;16.27;6.53;;;10.20;99.90;;;;;;5065756;28;20048;-89
2024/01/22 09:35:20;;;;;;;12.88;4.40;;;10.20;99.90;;;;;;5057913;28;20552;-95
2024/01/22 09:37:46;;;;;;;15.73;4.95;;;10.20;99.90;;;;;;5079374;28;20344;-79
2024/01/22 09:40:13;;;;;;;20.67;5.47;;;10.20;99.90;;;;;;5074751;28;20055;-95
2024/01/22 09:42:40;;;;;;;22.83;5.68;;;10.20;99.90;;;;;;5074177;28;20406;-86
2024/01/22 09:45:08;;;;;;;25.90;6.78;;;10.20;99.90;;;;;;5064111;28;20055;-89
2024/01/22 09:47:37;;;;;;;26.30;5.90;;;10.20;99.90;;;;;;5055393;28;20082;-87
2024/01/22 09:50:04;;;;;;;27.30;6.82;;;10.30;99.90;;;;;;5057093;28;20039;-86
2024/01/22 09:52:34;;;;;;;25.73;6.00;;;10.30;99.90;;;;;;5060746;28;20044;-86
2024/01/22 09:55:00;;;;;;;29.00;7.10;;;10.30;99.90;;;;;;5079419;28;20066;-94
2024/01/22 09:57:31;;;;;;;35.38;8.23;;;10.30;99.90;;;;;;5064238;28;20043;-86
2024/01/22 09:59:59;;;;;;;29.85;6.95;;;10.30;99.90;;;;;;5056316;28;20056;-86
2024/01/22 10:02:25;;;;;;;26.40;7.00;;;10.30;99.90;;;;;;5081359;28;20071;-88
2024/01/22 10:04:51;;;;;;;26.77;6.45;;;10.30;99.90;;;;;;5080472;28;20450;-94
2024/01/22 10:07:18;;;;;;;32.45;8.82;;;10.30;99.90;;;;;;5075614;28;20371;-87
2024/01/22 10:09:43;;;;;;;29.52;7.65;;;10.30;99.90;;;;;;5053844;28;20559;-86
2024/01/22 10:12:09;;;;;;;37.63;7.65;;;10.40;99.90;;;;;;5056040;28;20048;-87
2024/01/22 10:14:37;;;;;;;33.72;7.13;;;10.40;99.90;;;;;;5060269;28;20123;-88
2024/01/22 10:17:33;;;;;;;41.03;10.00;;;10.40;99.90;;;;;;5077808;28;20039;-95
2024/01/22 10:20:07;;;;;;;36.17;8.20;;;10.40;99.90;;;;;;5065205;28;20052;-89
2024/01/22 10:22:32;;;;;;;;;;;10.40;99.90;;;;;;5060748;28;20115;-87
2024/01/22 10:24:59;;;;;;;38.17;9.45;;;10.40;99.90;;;;;;5054488;28;20002;-88
2024/01/22 10:27:25;;;;;;;35.28;8.77;;;10.40;99.90;;;;;;5074182;28;20050;-95
2024/01/22 10:29:51;;;;;;;35.22;9.50;;;10.40;99.90;;;;;;5076737;28;20079;-89
2024/01/22 10:32:24;;;;;;;32.97;7.82;;;10.40;99.90;;;;;;5038789;28;1122815;-89
2024/01/22 10:34:53;;;;;;;37.75;7.97;;;10.40;99.90;;;;;;5080144;28;20048;-88
2024/01/22 10:37:19;;;;;;;32.72;8.60;;;10.40;99.90;;;;;;5061069;28;20040;-95
2024/01/22 10:39:48;;;;;;;34.60;7.40;;;10.40;99.90;;;;;;5075153;28;20032;-87
2024/01/22 10:42:14;;;;;;;37.65;8.85;;;10.40;99.90;;;;;;5061452;28;20036;-87
2024/01/22 10:44:47;;;;;;;31.17;7.22;;;10.30;99.90;;;;;;5062970;28;20048;-89
2024/01/22 10:47:14;;;;;;;38.92;7.60;;;10.40;99.90;;;;;;5066174;28;20039;-90
2024/01/22 10:49:43;;;;;;;33.58;11.60;;;10.30;99.90;;;;;;5079994;28;20505;-87
2024/01/22 10:52:09;;;;;;;33.22;8.23;;;10.30;99.90;;;;;;5060579;28;20089;-87
2024/01/22 10:54:36;;;;;;;32.90;7.10;;;10.30;99.90;;;;;;5079140;28;20110;-94
2024/01/22 10:57:04;;;;;;;31.48;6.28;;;10.30;99.90;;;;;;5060055;28;20487;-88
2024/01/22 10:59:38;;;;;;;27.75;6.93;;;10.30;99.90;;;;;;5079654;28;20445;-88
2024/01/22 11:02:05;;;;;;;30.02;7.88;;;10.30;99.90;;;;;;5060727;28;20047;-88
2024/01/22 11:04:43;;;;;;;34.17;7.20;;;10.30;99.90;;;;;;5058640;28;20058;-87
2024/01/22 11:07:10;;;;;;;32.40;7.35;;;10.20;99.90;;;;;;5075868;28;20044;-94
2024/01/22 11:09:38;;;;;;;30.52;6.03;;;10.20;99.90;;;;;;5068642;28;20101;-86
2024/01/22 11:12:14;;;;;;;30.55;6.57;;;10.20;99.90;;;;;;5070543;28;20047;-87
2024/01/22 11:14:41;;;;;;;31.95;7.18;;;10.20;99.90;;;;;;5080620;28;20032;-88
2024/01/22 11:17:09;;;;;;;34.83;6.18;;;10.50;99.90;;;;;;5082353;28;20039;-96
2024/01/22 11:19:35;;;;;;;29.45;6.80;;;11.10;99.90;;;;;;5081851;28;20109;-88
2024/01/22 11:22:23;;;;;;;26.73;7.07;;;11.70;99.90;;;;;;5079926;28;20040;-96
2024/01/22 11:25:01;;;;;;;27.95;6.25;;;12.10;99.90;;;;;;5076435;28;20043;-87
2024/01/22 11:27:38;;;;;;;27.38;7.18;;;12.20;99.90;;;;;;5062586;28;20119;-87
2024/01/22 11:30:29;;;;;;;30.88;7.25;;;12.10;99.90;;;;;;5074127;28;20039;-86
2024/01/22 11:33:23;;;;;;;26.05;7.25;;;12.00;99.90;;;;;;5077504;28;20062;-86
2024/01/22 11:35:49;;;;;;;27.30;7.35;;;12.40;99.90;;;;;;5077995;28;20414;-95
2024/01/22 11:38:34;;;;;;;24.90;7.32;;;12.60;99.90;;;;;;5097426;28;20073;-86
2024/01/22 11:41:00;;;;;;;33.45;6.20;;;12.70;99.90;;;;;;5079172;28;20044;-86
2024/01/22 11:43:26;;;;;;;32.25;7.95;;;12.90;99.90;;;;;;5062010;28;20078;-87
2024/01/22 11:45:56;;;;;;;30.85;7.43;;;13.00;99.90;;;;;;5056856;28;20542;-86
2024/01/22 11:48:31;;;;;;;25.98;6.53;;;13.10;99.90;;;;;;5084504;28;20039;-96
2024/01/22 11:50:59;;;;;;;21.25;5.80;;;13.00;99.90;;;;;;5084992;28;20040;-86
2024/01/22 11:53:26;;;;;;;25.20;6.38;;;13.00;99.90;;;;;;5064773;28;20086;-86
2024/01/22 11:56:02;;;;;;;26.60;6.28;;;12.70;99.90;;;;;;5058740;28;20529;-87
2024/01/22 11:58:32;;;;;;;21.40;5.10;;;12.50;99.90;;;;;;5063618;28;20118;-87
2024/01/22 12:01:00;;;;;;;23.63;6.25;;;12.20;99.90;;;;;;5071897;28;20061;-96
2024/01/22 12:03:30;;;;;;;31.60;6.40;;;11.90;99.90;;;;;;5076553;28;20105;-86
2024/01/22 12:06:00;;;;;;;27.85;7.15;;;11.70;99.90;;;;;;5086874;28;20042;-96
2024/01/22 12:08:26;;;;;;;24.30;4.82;;;11.40;99.90;;;;;;5083791;28;20055;-86
2024/01/22 12:10:56;;;;;;;25.80;5.53;;;11.30;99.90;;;;;;5064243;28;20044;-86
2024/01/22 12:13:23;;;;;;;28.10;5.50;;;11.30;99.90;;;;;;5062060;28;20498;-86
2024/01/22 12:15:55;;;;;;;23.13;5.18;;;11.20;99.90;;;;;;5067287;28;20044;-87
2024/01/22 12:18:25;;;;;;;23.00;6.50;;;11.20;99.90;;;;;;5062747;28;20032;-85
2024/01/22 12:21:02;;;;;;;23.25;5.50;;;11.10;99.90;;;;;;5060942;28;20043;-87
2024/01/22 12:23:32;;;;;;;24.88;5.00;;;11.20;99.90;;;;;;5089965;28;20040;-86
2024/01/22 12:25:59;;;;;;;18.90;4.43;;;11.40;99.90;;;;;;5061703;28;20051;-85
2024/01/22 12:28:26;;;;;;;20.33;5.15;;;11.60;99.90;;;;;;5070608;28;20055;-96
2024/01/22 12:31:02;;;;;;;25.15;5.93;;;11.80;99.90;;;;;;5071143;28;20044;-93
2024/01/22 12:33:41;;;;;;;27.52;4.68;;;11.80;99.90;;;;;;5069834;28;20401;-85
2024/01/22 12:36:19;;;;;;;20.83;4.40;;;11.60;99.90;;;;;;5077311;28;20510;-85
2024/01/22 12:38:49;;;;;;;16.52;5.47;;;11.30;99.90;;;;;;5082822;28;20071;-86
2024/01/22 12:41:15;;;;;;;20.02;4.50;;;11.00;99.90;;;;;;5061366;28;20044;-96
2024/01/22 12:43:41;;;;;;;19.10;4.45;;;10.90;99.90;;;;;;5080982;28;20093;-88
2024/01/22 12:46:13;;;;;;;20.90;5.50;;;10.70;99.90;;;;;;5085573;28;20038;-96
2024/01/22 12:48:39;;;;;;;20.70;5.53;;;10.70;99.90;;;;;;5080068;28;20040;-96
2024/01/22 12:51:07;;;;;;;27.73;8.73;;;10.60;99.90;;;;;;5072862;28;20127;-86